Taunton 2W

41° 53' 56"N, 71° 08' 19"W, Elevation 50 ft.
Eastern Time

Hourly observations for the last 72 hours

Date Time Temperature (°F) Humi-
dity

(%)
Wind
(mph)
Pressure Rain (in) Sun
(W/m2)
UV ET
(in)
Air Dew 6 Hour 1 Hr 3 Hr 6 Hr Day
Alt
(in)
Sea
Level

(mb)
Max Min
25 13:00 43.2 36.5 77 NE 7 G 12 30.21 1022.9 0.03 132 1.1 0.015
25 12:00 43.6 37.2 78 E 4 G 9 30.22 1023.4 0.03 158 1.1 0.012
25 11:00 44.6 38.8 80 NNE 5 G 9 30.21 1023.1 0.01 0.03 223 1.3 0.007
25 10:00 43.6 39.1 84 N 7 G 16 30.19 1022.4 0.03 230 1.3 0.003
25 09:00 42.0 39.3 90 ENE 1 G 3 30.16 1021.4 0.01 0.03 236 0.7 0.001
25 08:00 38.1 36.3 38.5 32.5 93 N 0 G 4 30.15 1021.1 0.02 0.02 0.02 0.02 33 0.0 0.001
25 07:00 37.1 33.3 86 NNE 2 G 2 30.12 1020.1 0.00 0 0.0 0.001
25 06:00 36.2 31.8 84 E 2 G 3 30.08 1018.7 0.00 0 0.0 0.001
25 05:00 34.8 31.3 87 NNW 0 G 1 30.06 1018.0 0.00 0 0.0 0.001
25 04:00 34.4 30.6 86 NNW 0 G 4 30.06 1017.9 0.00 0 0.0 0.001
25 03:00 32.6 29.2 87 S 1 G 1 30.04 1017.2 0.00 0 0.0 0.001
25 02:00 34.1 29.8 45.8 34.1 84 S 0 G 3 30.06 1017.9 0.00 0 0.0 0.001
25 01:00 36.6 31.0 80 S 1 G 3 30.06 1017.9 0.00 0 0.0 0.000
25 00:00 40.1 31.8 72 S 0 G 2 30.08 1018.6 0.01 0 0.0 0.049
24 23:00 45.7 33.4 62 S 3 G 5 30.07 1018.2 0.01 0 0.0 0.047
24 22:00 45.3 32.6 61 S 6 G 10 30.06 1018.0 0.01 0 0.0 0.045
24 21:00 45.1 31.6 59 SSW 6 G 12 30.09 1019.1 0.01 0 0.0 0.043
24 20:00 44.3 31.3 44.5 39.9 60 S 8 G 12 30.08 1018.8 0.01 0.01 0 0.0 0.041
24 19:00 44.0 31.0 60 SSW 9 G 17 30.08 1018.5 0.01 0 0.0 0.039
24 18:00 44.2 33.6 66 SSW 8 G 14 30.11 1019.7 0.01 37 0.0 0.036
24 17:00 43.6 33.4 67 SSW 13 G 27 30.13 1020.5 0.01 0.01 44 0.0 0.033
24 16:00 42.5 32.7 68 S 12 G 19 30.16 1021.5 0.01 51 0.0 0.029
24 15:00 41.4 31.6 68 S 12 G 19 30.19 1022.5 0.01 0.01 123 0.8 0.026
24 14:00 40.9 30.0 42.0 28.0 65 S 15 G 21 30.26 1024.8 0.00 118 0.9 0.022
24 13:00 41.8 29.7 62 SW 9 G 18 30.34 1027.5 0.00 98 0.7 0.018
24 12:00 41.4 30.1 64 SSW 13 G 25 30.38 1028.8 0.00 183 1.3 0.013
24 11:00 41.1 29.1 62 S 11 G 21 30.40 1029.5 0.00 232 1.4 0.008
24 10:00 40.3 26.7 58 S 10 G 16 30.42 1030.3 0.00 185 0.9 0.004
24 09:00 33.4 21.0 60 SSE 4 G 5 30.45 1031.3 0.00 142 0.5 0.002
24 08:00 28.0 18.8 28.0 19.3 68 W 2 G 4 30.49 1032.6 0.00 35 0.0 0.001
24 07:00 24.0 17.2 75 Calm 30.50 1033.0 0.00 5 0.0 0.001
24 06:00 21.3 14.3 74 W 0 G 1 30.48 1032.2 0.00 0 0.0 0.001
24 05:00 21.8 13.8 71 W 1 G 2 30.49 1032.5 0.00 0 0.0 0.001
24 04:00 22.6 13.3 67 Calm 30.51 1033.2 0.00 0 0.0 0.001
24 03:00 20.4 12.2 70 WNW 1 G 3 30.52 1033.5 0.00 0 0.0 0.001
24 02:00 20.0 12.7 31.6 20.0 73 WNW 0 G 2 30.51 1033.3 0.00 0 0.0 0.001
24 01:00 21.4 12.8 69 WNW 1 G 2 30.52 1033.7 0.00 0 0.0 0.000
24 00:00 23.0 11.6 61 WNW 2 G 5 30.51 1033.4 0.00 0 0.0 0.135
23 23:00 23.4 11.2 59 WNW 2 G 3 30.53 1033.9 0.00 0 0.0 0.134
23 22:00 24.2 7.8 49 NW 3 G 6 30.52 1033.5 0.00 0 0.0 0.133
23 21:00 26.4 10.7 51 NW 3 G 4 30.50 1033.0 0.00 0 0.0 0.132
23 20:00 31.6 3.0 40.0 31.6 29 NW 3 G 7 30.47 1032.0 0.00 0 0.0 0.130
23 19:00 35.0 1.8 24 NW 5 G 10 30.45 1031.2 0.00 5 0.0 0.126
23 18:00 38.6 2.0 21 WNW 10 G 19 30.43 1030.4 0.00 144 0.0 0.119
23 17:00 39.7 2.9 21 NW 9 G 17 30.42 1030.1 0.00 343 0.7 0.108
23 16:00 39.9 3.1 21 WNW 9 G 18 30.41 1029.8 0.00 529 1.5 0.095
23 15:00 38.7 3.1 22 WNW 9 G 15 30.41 1029.8 0.00 679 2.2 0.080
23 14:00 36.1 1.8 36.6 19.7 23 NW 12 G 20 30.42 1030.2 0.00 777 3.1 0.065
23 13:00 33.5 1.4 25 WNW 11 G 24 30.44 1030.9 0.00 824 3.4 0.050
23 12:00 31.7 0.7 26 NNW 11 G 20 30.47 1031.8 0.00 810 3.2 0.037
23 11:00 28.8 -0.2 28 NNW 9 G 18 30.48 1032.3 0.00 735 2.5 0.026
23 10:00 25.8 -1.4 30 NNW 13 G 21 30.49 1032.5 0.00 608 1.6 0.017
23 09:00 22.8 -1.4 34 NW 8 G 20 30.48 1032.3 0.00 432 0.8 0.012
23 08:00 19.7 -0.7 19.7 15.4 40 NW 5 G 13 30.48 1032.0 0.00 232 0.0 0.010
23 07:00 15.6 -2.0 45 NW 3 G 8 30.45 1031.1 0.00 12 0.0 0.009
23 06:00 15.9 -2.2 44 NW 5 G 9 30.41 1029.9 0.00 0 0.0 0.008
23 05:00 16.6 -3.0 41 NW 7 G 14 30.39 1029.2 0.00 0 0.0 0.007
23 04:00 16.9 -3.3 40 NW 4 G 15 30.37 1028.5 0.00 0 0.0 0.006
23 03:00 17.3 -4.0 38 NW 7 G 14 30.37 1028.3 0.00 0 0.0 0.004
23 02:00 18.0 -5.1 24.0 17.9 35 NW 9 G 16 30.36 1028.2 0.00 0 0.0 0.002
23 01:00 18.7 -5.7 33 NNW 12 G 21 30.34 1027.5 0.00 0 0.0 0.000
23 00:00 19.3 -5.8 32 NW 9 G 20 30.31 1026.3 0.00 0 0.0 0.146
22 23:00 20.2 -7.0 29 NNW 14 G 26 30.28 1025.6 0.00 0 0.0 0.143
22 22:00 21.1 -7.0 28 NW 19 G 27 30.25 1024.5 0.00 0 0.0 0.140
22 21:00 22.1 -6.1 28 NW 13 G 26 30.22 1023.5 0.00 0 0.0 0.136
22 20:00 24.0 -6.0 35.3 23.9 26 NW 16 G 36 30.18 1022.2 0.00 0 0.0 0.132
22 19:00 25.2 -4.9 26 NW 12 G 28 30.13 1020.5 0.00 5 0.0 0.127
22 18:00 28.0 -3.3 25 NW 15 G 30 30.08 1018.8 0.00 144 0.0 0.119
22 17:00 29.1 -4.1 23 NW 16 G 37 30.06 1018.0 0.00 345 0.6 0.108
22 16:00 31.7 -1.9 23 NW 18 G 34 30.02 1016.7 0.00 529 1.3 0.094
22 15:00 32.4 2.1 27 NW 21 G 37 30.00 1015.8 0.00 673 1.9 0.078
22 14:00 34.3 8.2 41.5 33.9 33 NW 15 G 30 29.96 1014.6 0.00 777 2.8 0.061

Data generated by WxSolution Version 1.9.0.7, Build 2017.01.18.